Sagle, Idaho
Current Conditions -  °F | °C
As of 7:15 PM on Tuesday 25 Nov 2014 (Local Time) from KSZT Reporting Station
Light Rain Light Rain  
Wind Chill: 34°   Ceiling: 1200
Heat Index: 34°   Visibility: 5mi
Dew Point: 34°   Wind: 0mph
Humidity: 100%   Direction: NA
Pressure: 30.2"   Gusts: NA
Location:  48.2°N, 116.55°W
Report Text: KSZT 260315Z AUTO 00000KT 5SM -RA BKN012 OVC020 01/01 A3020 RMK AO2
Loading
Personal Weather Stations






























Interactive Weather Map New forecast layout! Learn more

10-Day Weather Forecast

Advertisements
Track Severe Weather on mobile